createdAt,value
2023-01-19T05:16:37.819Z,68.67
2023-01-19T05:19:04.341Z,68.05
2023-01-19T05:21:31.188Z,67.50
2023-01-19T05:23:57.903Z,67.31
2023-01-19T05:26:24.396Z,67.65
2023-01-19T05:28:52.140Z,67.38
2023-01-19T05:31:20.724Z,67.36
2023-01-19T05:33:49.023Z,68.00
2023-01-19T05:36:15.600Z,68.05
2023-01-19T05:38:42.169Z,68.18
2023-01-19T05:41:08.656Z,68.25
2023-01-19T05:43:35.186Z,68.74
2023-01-19T05:46:03.989Z,68.03
2023-01-19T05:48:30.686Z,68.40
2023-01-19T05:50:58.985Z,67.52
2023-01-19T05:53:26.380Z,68.18
2023-01-19T05:55:52.934Z,68.59
2023-01-19T05:58:22.600Z,69.52
2023-01-19T06:00:49.114Z,69.56
2023-01-19T06:03:15.709Z,69.74
2023-01-19T06:05:42.343Z,69.67
2023-01-19T06:08:08.887Z,69.71
2023-01-19T06:10:35.477Z,69.27
2023-01-19T06:13:02.360Z,67.78
2023-01-19T06:15:29.126Z,69.93
2023-01-19T06:17:55.622Z,68.71
2023-01-19T06:20:22.413Z,68.85
2023-01-19T06:22:49.007Z,69.16
2023-01-19T06:25:15.715Z,68.38
2023-01-19T06:27:46.123Z,68.89
2023-01-19T06:30:13.647Z,68.37
2023-01-19T06:32:40.691Z,68.48
2023-01-19T06:35:07.929Z,66.50
2023-01-19T06:37:35.065Z,66.52
2023-01-19T06:40:01.809Z,65.92
2023-01-19T06:42:28.508Z,67.25
2023-01-19T06:44:55.008Z,67.08
2023-01-19T06:47:21.645Z,67.57
2023-01-19T06:49:49.045Z,68.35
2023-01-19T06:52:17.413Z,67.21
2023-01-19T06:54:47.165Z,67.15
2023-01-19T06:57:14.859Z,67.00
2023-01-19T06:59:44.555Z,66.77
2023-01-19T07:02:27.985Z,66.80
2023-01-19T07:05:01.022Z,66.67
2023-01-19T07:07:54.895Z,67.85
2023-01-19T07:10:21.923Z,67.67
2023-01-19T07:12:48.660Z,67.14
2023-01-19T07:15:17.135Z,67.23
2023-01-19T07:17:44.229Z,67.67
2023-01-19T07:20:14.170Z,66.20
2023-01-19T07:22:41.791Z,66.21
2023-01-19T07:25:08.725Z,64.80
2023-01-19T07:27:36.465Z,66.38
2023-01-19T07:30:04.557Z,66.60
2023-01-19T07:32:31.312Z,66.00
2023-01-19T07:34:57.756Z,65.16
2023-01-19T07:37:24.170Z,65.53
2023-01-19T07:39:50.616Z,65.34
2023-01-19T07:42:17.157Z,65.03
2023-01-19T07:44:43.620Z,65.13
2023-01-19T07:47:12.600Z,65.15
2023-01-19T07:49:39.680Z,63.96
2023-01-19T07:52:06.223Z,64.72
2023-01-19T07:54:33.156Z,64.65
2023-01-19T07:57:00.785Z,64.75
2023-01-19T07:59:31.019Z,63.71
2023-01-19T08:01:59.437Z,63.30
2023-01-19T08:04:27.506Z,63.24
2023-01-19T08:06:55.389Z,62.16
2023-01-19T08:09:24.434Z,62.29
2023-01-19T08:11:50.938Z,61.25
2023-01-19T08:14:17.554Z,61.37
2023-01-19T08:16:44.133Z,61.43
2023-01-19T08:19:10.568Z,61.15
2023-01-19T08:21:38.817Z,60.45
2023-01-19T08:24:05.641Z,61.19
2023-01-19T08:26:34.907Z,62.99
2023-01-19T08:29:04.181Z,63.48
2023-01-19T08:31:31.223Z,64.12
2023-01-19T08:33:58.092Z,64.47
2023-01-19T08:36:25.113Z,63.36
2023-01-19T08:38:52.217Z,64.33
2023-01-19T08:41:23.944Z,64.06
2023-01-19T08:43:50.496Z,65.47
2023-01-19T08:46:17.617Z,66.40
2023-01-19T08:48:45.166Z,66.47
2023-01-19T08:51:16.189Z,66.68
2023-01-19T08:53:43.237Z,65.05
2023-01-19T08:56:14.237Z,67.28
2023-01-19T08:58:42.243Z,66.80
2023-01-19T09:01:09.956Z,66.47
2023-01-19T09:03:40.484Z,66.53
2023-01-19T09:06:08.178Z,66.07
2023-01-19T09:08:35.801Z,65.20
2023-01-19T09:11:02.640Z,64.91
2023-01-19T09:13:29.187Z,65.62
2023-01-19T09:15:55.686Z,64.93
2023-01-19T09:18:23.245Z,65.94
2023-01-19T09:20:50.421Z,65.15
2023-01-19T09:23:20.793Z,66.89
2023-01-19T09:25:48.345Z,66.47
2023-01-19T09:28:17.521Z,66.15
2023-01-19T09:30:44.985Z,66.10
2023-01-19T09:33:15.221Z,66.12
2023-01-19T09:35:46.284Z,66.23
2023-01-19T09:38:15.164Z,65.52
2023-01-19T09:40:45.131Z,66.06
2023-01-19T09:43:25.183Z,66.08
2023-01-19T09:45:52.987Z,66.02
2023-01-19T09:48:50.864Z,65.93
2023-01-19T09:51:38.011Z,64.25
2023-01-19T09:54:31.623Z,65.54
2023-01-19T09:56:58.141Z,64.98
2023-01-19T09:59:32.097Z,64.99
2023-01-19T10:02:37.121Z,65.86
2023-01-19T10:05:12.203Z,66.02
2023-01-19T10:08:03.536Z,66.24
2023-01-19T10:10:42.329Z,66.65
2023-01-19T10:14:02.791Z,65.82
2023-01-19T10:16:45.649Z,67.12
2023-01-19T10:19:31.119Z,66.84
2023-01-19T10:22:06.119Z,66.08
2023-01-19T10:24:41.732Z,66.68
2023-01-19T10:27:31.164Z,66.99
2023-01-19T10:29:59.038Z,66.29
2023-01-19T10:32:35.761Z,65.74
2023-01-19T10:35:21.494Z,65.23
2023-01-19T10:37:48.318Z,65.46
2023-01-19T10:40:44.768Z,65.00
2023-01-19T10:43:35.362Z,64.95
2023-01-19T10:46:31.104Z,65.86
2023-01-19T10:48:57.868Z,66.70
2023-01-19T10:51:24.632Z,66.54
2023-01-19T10:54:00.631Z,66.54
2023-01-19T10:56:38.361Z,67.24
2023-01-19T10:59:07.051Z,68.52
2023-01-19T11:01:37.014Z,69.17
2023-01-19T11:04:29.365Z,68.09
2023-01-19T11:07:19.591Z,68.21
2023-01-19T11:09:47.297Z,69.27
2023-01-19T11:12:23.399Z,68.03
2023-01-19T11:14:51.773Z,69.48
2023-01-19T11:17:28.520Z,68.85
2023-01-19T11:20:01.856Z,68.99
2023-01-19T11:22:33.526Z,69.18
2023-01-19T11:25:02.386Z,69.71
2023-01-19T11:27:30.888Z,71.07
2023-01-19T11:30:05.251Z,70.30
2023-01-19T11:32:33.140Z,70.88
2023-01-19T11:34:59.995Z,71.63
2023-01-19T11:37:31.710Z,71.62
2023-01-19T11:40:00.112Z,70.99
2023-01-19T11:42:30.060Z,70.40
2023-01-19T11:45:13.158Z,69.28
2023-01-19T11:47:52.446Z,70.24
2023-01-19T11:50:25.176Z,70.45
2023-01-19T11:53:17.371Z,69.95
2023-01-19T11:55:50.729Z,70.82
2023-01-19T11:58:19.219Z,70.78
2023-01-19T12:00:48.455Z,71.32
2023-01-19T12:03:26.153Z,70.72
2023-01-19T12:05:56.870Z,69.62
2023-01-19T12:08:30.657Z,69.65
2023-01-19T12:10:59.849Z,70.80
2023-01-19T12:13:28.610Z,71.61
2023-01-19T12:16:01.363Z,70.95
2023-01-19T12:18:33.779Z,70.88
2023-01-19T12:21:02.868Z,71.81
2023-01-19T12:23:38.983Z,72.22
2023-01-19T12:26:35.776Z,72.84
2023-01-19T12:29:14.364Z,71.94
2023-01-19T12:31:43.227Z,73.03
2023-01-19T12:34:25.957Z,72.79
2023-01-19T12:37:01.161Z,72.80
2023-01-19T12:39:27.679Z,72.98
2023-01-19T12:42:15.277Z,73.06
2023-01-19T12:44:43.657Z,73.12
2023-01-19T12:47:14.345Z,73.17
2023-01-19T12:49:44.515Z,73.17
2023-01-19T12:52:26.641Z,72.60
2023-01-19T12:55:15.277Z,71.61
2023-01-19T12:57:50.461Z,73.40
2023-01-19T13:00:23.108Z,73.54
2023-01-19T13:02:56.816Z,74.34
2023-01-19T13:05:32.841Z,73.67
2023-01-19T13:08:06.231Z,74.13
2023-01-19T13:10:59.357Z,73.63
2023-01-19T13:13:42.283Z,73.89
2023-01-19T13:16:18.167Z,73.51
2023-01-19T13:19:05.227Z,72.63
2023-01-19T13:21:44.711Z,73.51
2023-01-19T13:24:14.942Z,74.08
2023-01-19T13:26:49.188Z,73.83
2023-01-19T13:29:26.864Z,72.54
2023-01-19T13:31:56.113Z,73.09
2023-01-19T13:34:27.763Z,71.28
2023-01-19T13:36:56.361Z,74.04
2023-01-19T13:39:34.795Z,73.33
2023-01-19T13:42:06.654Z,71.84
2023-01-19T13:44:51.370Z,72.92
2023-01-19T13:47:46.642Z,72.94
2023-01-19T13:50:39.657Z,74.18
2023-01-19T13:53:20.977Z,73.03
2023-01-19T13:55:50.367Z,74.26
2023-01-19T13:58:23.844Z,75.23
2023-01-19T14:00:50.439Z,74.34
2023-01-19T14:03:25.030Z,74.22
2023-01-19T14:05:53.955Z,74.09
2023-01-19T14:08:21.652Z,74.70
2023-01-19T14:10:52.348Z,74.62
2023-01-19T14:13:32.104Z,75.37
2023-01-19T14:16:05.483Z,75.22
2023-01-19T14:18:34.194Z,74.35
2023-01-19T14:21:09.897Z,75.08
2023-01-19T14:24:13.032Z,74.94
2023-01-19T14:26:54.714Z,74.58
2023-01-19T14:29:32.643Z,73.90
2023-01-19T14:32:21.270Z,74.88
2023-01-19T14:35:12.379Z,73.22
2023-01-19T14:37:50.838Z,73.67
2023-01-19T14:40:20.192Z,74.69
2023-01-19T14:43:03.320Z,75.90
2023-01-19T14:45:42.857Z,75.81
2023-01-19T14:51:20.271Z,76.45
2023-01-19T14:53:51.224Z,75.30
2023-01-19T14:56:30.295Z,76.25
2023-01-19T14:58:58.217Z,75.98
2023-01-19T15:01:31.081Z,76.05
2023-01-19T15:03:58.662Z,74.87
2023-01-19T15:06:26.440Z,74.25
2023-01-19T15:08:53.628Z,73.58
2023-01-19T15:11:33.857Z,74.54
2023-01-19T15:14:01.275Z,72.89
2023-01-19T15:16:29.758Z,72.82
2023-01-19T15:18:56.518Z,73.49
2023-01-19T15:21:28.558Z,73.22
2023-01-19T15:23:55.562Z,73.35
2023-01-19T15:26:26.926Z,73.40
2023-01-19T15:28:53.784Z,74.01
2023-01-19T15:31:23.022Z,73.89
2023-01-19T15:33:49.919Z,72.91
2023-01-19T15:36:19.662Z,71.36
2023-01-19T15:38:47.131Z,70.51
2023-01-19T15:41:32.108Z,69.55
2023-01-19T15:43:58.931Z,69.66
2023-01-19T15:46:26.078Z,70.70
2023-01-19T15:48:53.497Z,70.69
2023-01-19T15:51:22.803Z,71.62
2023-01-19T15:53:50.567Z,71.35
2023-01-19T15:56:21.847Z,72.11
2023-01-19T15:58:48.333Z,71.97
2023-01-19T16:01:20.319Z,71.66
2023-01-19T16:03:49.522Z,71.73
2023-01-19T16:06:16.505Z,71.49
2023-01-19T16:08:43.390Z,72.60
2023-01-19T16:11:12.571Z,73.82
2023-01-19T16:13:39.879Z,74.17
2023-01-19T16:16:13.693Z,74.52
2023-01-19T16:18:40.484Z,74.53
2023-01-19T16:21:07.051Z,73.91
2023-01-19T16:23:33.584Z,74.11
2023-01-19T16:26:09.221Z,73.30
2023-01-19T16:28:37.462Z,74.10
2023-01-19T16:31:04.925Z,73.94
2023-01-19T16:33:31.462Z,75.02
2023-01-19T16:36:19.683Z,74.95
2023-01-19T16:38:46.389Z,75.18
2023-01-19T16:41:12.980Z,73.96
2023-01-19T16:43:39.594Z,73.63
2023-01-19T16:46:06.275Z,72.41
2023-01-19T16:48:32.914Z,73.34
2023-01-19T16:51:05.524Z,72.78
2023-01-19T16:53:37.139Z,73.22
2023-01-19T16:56:08.520Z,72.74
2023-01-19T16:58:37.427Z,72.40
2023-01-19T17:01:19.893Z,71.43
2023-01-19T17:03:47.437Z,71.68
2023-01-19T17:06:20.303Z,70.19
2023-01-19T17:08:47.463Z,70.21
2023-01-19T17:11:20.787Z,71.24
2023-01-19T17:13:56.776Z,71.45
2023-01-19T17:16:24.660Z,71.28
2023-01-19T17:18:51.441Z,71.15
2023-01-19T17:21:19.368Z,72.08
2023-01-19T17:23:48.016Z,72.38
2023-01-19T17:26:15.025Z,71.74
2023-01-19T17:28:41.755Z,71.63
2023-01-19T17:31:10.990Z,70.67
2023-01-19T17:33:38.484Z,71.45
2023-01-19T17:36:07.407Z,72.92
2023-01-19T17:38:34.992Z,72.79
2023-01-19T17:41:01.877Z,73.84
2023-01-19T17:43:31.288Z,74.14
2023-01-19T17:46:01.479Z,72.42
2023-01-19T17:48:27.935Z,72.95
2023-01-19T17:50:55.634Z,71.98
2023-01-19T17:53:22.047Z,71.28
2023-01-19T17:55:48.502Z,72.18
2023-01-19T17:58:14.905Z,71.31
2023-01-19T18:00:41.373Z,71.47
2023-01-19T18:03:07.780Z,72.07
2023-01-19T18:05:34.310Z,71.73
2023-01-19T18:08:00.925Z,71.12
2023-01-19T18:10:27.403Z,72.13
2023-01-19T18:12:54.199Z,71.60
2023-01-19T18:15:20.664Z,72.26
2023-01-19T18:17:47.111Z,73.18
2023-01-19T18:20:13.988Z,72.55
2023-01-19T18:22:40.908Z,73.30
2023-01-19T18:25:07.635Z,73.77
2023-01-19T18:27:34.183Z,73.48
2023-01-19T18:30:00.688Z,73.77
2023-01-19T18:32:27.362Z,74.41
2023-01-19T18:34:54.164Z,73.88
2023-01-19T18:37:26.002Z,73.75
2023-01-19T18:39:54.358Z,71.54
2023-01-19T18:42:25.023Z,73.17
2023-01-19T18:44:51.518Z,72.39
2023-01-19T18:47:18.209Z,72.65
2023-01-19T18:49:44.685Z,72.58
2023-01-19T18:52:11.411Z,71.18
2023-01-19T18:54:37.902Z,70.00
2023-01-19T18:57:04.435Z,69.13
2023-01-19T18:59:31.056Z,68.20
2023-01-19T19:02:01.253Z,68.45
2023-01-19T19:04:27.851Z,68.19
2023-01-19T19:06:55.515Z,68.08
2023-01-19T19:09:22.002Z,67.71
2023-01-19T19:11:48.578Z,69.80
2023-01-19T19:14:15.304Z,71.12
2023-01-19T19:16:41.960Z,71.26
2023-01-19T19:19:11.941Z,71.75
2023-01-19T19:21:38.554Z,70.85
2023-01-19T19:24:06.651Z,69.41
2023-01-19T19:26:33.526Z,68.84
2023-01-19T19:29:04.388Z,68.62
2023-01-19T19:31:34.626Z,69.58
2023-01-19T19:34:01.556Z,68.16
2023-01-19T19:36:31.853Z,67.89
2023-01-19T19:38:59.485Z,67.33
2023-01-19T19:41:27.991Z,67.18
2023-01-19T19:43:55.813Z,67.92
2023-01-19T19:46:28.817Z,68.86
2023-01-19T19:48:57.604Z,69.20
2023-01-19T19:51:29.282Z,70.78
2023-01-19T19:53:58.800Z,71.90
2023-01-19T19:56:26.814Z,72.96
2023-01-19T19:58:59.053Z,73.76
2023-01-19T20:01:33.400Z,73.80
2023-01-19T20:04:11.885Z,73.51
2023-01-19T20:06:41.040Z,72.17
2023-01-19T20:09:10.394Z,73.96
2023-01-19T20:11:37.849Z,74.68
2023-01-19T20:14:05.651Z,74.09
2023-01-19T20:16:32.671Z,73.27
2023-01-19T20:18:59.183Z,74.29
2023-01-19T20:21:29.905Z,74.37
2023-01-19T20:24:03.026Z,74.57
2023-01-19T20:26:33.204Z,74.67
2023-01-19T20:29:10.174Z,74.72
2023-01-19T20:31:51.356Z,74.02
2023-01-19T20:34:19.913Z,74.69
2023-01-19T20:36:51.158Z,74.08
2023-01-19T20:39:25.759Z,74.63
2023-01-19T20:41:52.632Z,73.78
2023-01-19T20:44:24.728Z,74.11
2023-01-19T20:46:52.010Z,73.47
2023-01-19T20:49:18.615Z,74.22
2023-01-19T20:51:46.813Z,74.46
2023-01-19T20:54:15.913Z,73.93
2023-01-19T20:56:45.481Z,73.36
2023-01-19T20:59:12.537Z,73.80
2023-01-19T21:01:40.217Z,74.51
2023-01-19T21:04:06.956Z,73.80
2023-01-19T21:06:33.801Z,73.24
2023-01-19T21:09:00.368Z,72.60
2023-01-19T21:11:27.631Z,72.88
2023-01-19T21:13:56.456Z,72.62
2023-01-19T21:16:26.843Z,73.98
2023-01-19T21:18:53.769Z,74.20
2023-01-19T21:21:30.392Z,74.71
2023-01-19T21:24:01.742Z,75.49
2023-01-19T21:26:33.175Z,75.70
2023-01-19T21:29:00.739Z,74.37
2023-01-19T21:31:28.358Z,74.11
2023-01-19T21:33:56.160Z,73.70
2023-01-19T21:36:23.840Z,72.79
2023-01-19T21:38:52.310Z,71.69
2023-01-19T21:41:19.019Z,71.95
2023-01-19T21:43:46.179Z,71.05
2023-01-19T21:46:17.716Z,69.91
2023-01-19T21:48:45.745Z,70.26
2023-01-19T21:51:13.018Z,71.17
2023-01-19T21:53:40.244Z,70.88
2023-01-19T21:56:11.154Z,73.73
2023-01-19T21:58:37.862Z,72.32
2023-01-19T22:01:08.643Z,73.39
2023-01-19T22:03:35.256Z,73.97
2023-01-19T22:06:06.757Z,73.83
2023-01-19T22:08:33.680Z,72.98
2023-01-19T22:11:08.197Z,74.26
2023-01-19T22:13:38.418Z,75.67
2023-01-19T22:16:08.737Z,75.79
2023-01-19T22:18:39.988Z,75.07
2023-01-19T22:21:22.616Z,72.92
2023-01-19T22:23:51.104Z,71.82
2023-01-19T22:26:18.122Z,72.18
2023-01-19T22:28:44.953Z,73.91
2023-01-19T22:31:13.729Z,73.53
2023-01-19T22:33:41.090Z,72.72
2023-01-19T22:36:26.956Z,72.94
2023-01-19T22:38:55.732Z,71.42
2023-01-19T22:41:29.596Z,71.72
2023-01-19T22:43:58.536Z,72.48
2023-01-19T22:46:27.850Z,73.13
2023-01-19T22:48:55.349Z,72.93
2023-01-19T22:51:22.677Z,73.72
2023-01-19T22:53:49.352Z,73.61
2023-01-19T22:56:17.230Z,72.77
2023-01-19T22:58:44.681Z,72.46
